Aérodrome :
LOGIN :

S'inscrire | Disclaimer

   EN    FR    IT 

 










Légende :    VFR   VFR Marginal   IFR   IFR Intensif   IFR Très Intensif
Visi : 
Plafond : 
>= 8 km
>= 3000ft
5 à 8 km
1000 à 3000 ft
1500m à 5 km
500 à 1000 ft
800 à 1500m
200 à 500 ft
< 800m
< 200 ft
Symboles :   Orages  Brouillard  Fortes neiges  Fortes précipitations  Vent > 20 kt
SIGMETs :   Divers  Orages  Givrage  Turbulence  Onde Orograph.  Cendres Volcan.






- Altitude de l'aérodrome : 171 ft
- Code IATA : EGC


LFBE - Bergerac

DERNIER METAR :
  • 301500Z AUTO 07003KT 030V100 CAVOK 19/12 Q1024 NOSIG

METARs EXPIRÉS :
  • 301430Z AUTO 05005KT 020V100 CAVOK 19/12 Q1024 NOSIG
  • 301400Z AUTO 06006KT CAVOK 19/12 Q1024 NOSIG
  • 301330Z AUTO 07007KT CAVOK 18/12 Q1025 NOSIG
  • 301300Z AUTO 07006KT CAVOK 18/12 Q1025 NOSIG
  • 301230Z AUTO 07005KT 030V110 CAVOK 17/13 Q1025 NOSIG

TAF TAF LFBE
Valide du 30 à 12h jusqu'au 31 à 12h UTC


301100Z 3012/3112 09005KT CAVOK
BECMG 3022/3024 0300 FG VV///
BECMG 3109/3111 CAVOK



MET'MAP, la Météo Aéronautique d'un coup d'oeil ! - Copyright ORBIFLY Décembre 2007 - Disclaimer

ORBIFLY MET'MAP TEAM :

Programmation & Développement : Alexandra Zaïnal
Sur une idée originale de : Baudouin d'Aumeries
Assistance à la programmation : Marc-Olivier Méhu
Soutien technique & logistique : Manuel Goepfert

Contact : metmap@orbifly.com




SOURCES & CREDITS :

   NOAA